Terminal Aerodrome Forecast
Issued by NWS

Home | Current Version | Previous Version | Text Only | Print | Product List | Glossary On
Versions: 1 2 3 4 5 6 7 8 9 10 11 12
000
FTUS42 KTAE 221100
TAFDHN
TAF
KDHN 221120Z 2212/2312 06007KT P6SM SCT050
     FM221500 08010G15KT P6SM SCT050 BKN100
     FM221900 09011KT P6SM BKN050 BKN100
     FM230000 10010KT P6SM VCSH OVC025
     FM230300 10010KT 3SM RA BR OVC007=

USA.gov is the U.S. government's official web portal to all federal, state and local government web resources and services.